Time;durP1;ratioP1;P1;durP2;ratioP2;P2;SDS_P1;SDS_P2;PMS_P1;PMS_P2;Temp;Humidity;BMP_temperature;BMP_pressure;BME280_temperature;BME280_humidity;BME280_pressure;Samples;Min_cycle;Max_cycle;Signal;HPM_P1;HPM_P2
2023/08/24 00:00:51;;;;;;;9.17;6.47;;;16.80;1.00;;;;;;5078442;28;20531;-59
2023/08/24 00:03:21;;;;;;;8.67;6.47;;;16.60;1.00;;;;;;5078956;28;20893;-59
2023/08/24 00:05:49;;;;;;;7.33;5.80;;;16.50;99.90;;;;;;5078432;28;20462;-59
2023/08/24 00:08:17;;;;;;;8.57;6.23;;;16.40;99.90;;;;;;5078833;28;20457;-59
2023/08/24 00:10:46;;;;;;;8.90;6.00;;;16.50;49.10;;;;;;5078464;28;20483;-59
2023/08/24 00:13:14;;;;;;;10.07;7.03;;;16.50;1.00;;;;;;5078467;28;20461;-59
2023/08/24 00:15:41;;;;;;;10.10;7.20;;;16.50;24.70;;;;;;5078288;28;20496;-59
2023/08/24 00:18:08;;;;;;;11.50;6.90;;;16.60;1.00;;;;;;5078874;28;20507;-59
2023/08/24 00:20:37;;;;;;;10.57;6.80;;;16.60;53.20;;;;;;5078552;28;20838;-59
2023/08/24 00:23:04;;;;;;;9.13;6.30;;;16.60;99.90;;;;;;5077994;28;20458;-59
2023/08/24 00:25:32;;;;;;;9.30;6.33;;;16.60;1.00;;;;;;5077889;28;20487;-59
2023/08/24 00:28:03;;;;;;;12.67;6.57;;;16.60;1.00;;;;;;5078120;28;20514;-59
2023/08/24 00:30:31;;;;;;;8.60;6.07;;;16.60;1.00;;;;;;5078321;28;20556;-59
2023/08/24 00:32:58;;;;;;;7.47;6.00;;;16.60;21.60;;;;;;5078029;28;20837;-59
2023/08/24 00:35:25;;;;;;;8.90;6.37;;;16.60;1.00;;;;;;5077008;28;20464;-59
2023/08/24 00:37:52;;;;;;;6.83;5.70;;;16.60;1.00;;;;;;5077711;28;20957;-59
2023/08/24 00:40:19;;;;;;;6.37;5.77;;;16.50;1.00;;;;;;5077102;28;20485;-59
2023/08/24 00:42:47;;;;;;;9.00;5.67;;;16.50;1.00;;;;;;5077573;28;20955;-60
2023/08/24 00:45:16;;;;;;;8.63;6.73;;;16.50;1.00;;;;;;5076503;28;20520;-59
2023/08/24 00:47:46;;;;;;;7.83;5.50;;;16.50;1.00;;;;;;5077452;28;20463;-59
2023/08/24 00:50:13;;;;;;;9.37;5.80;;;16.50;1.00;;;;;;5078250;28;20822;-59
2023/08/24 00:52:42;;;;;;;10.03;6.10;;;16.40;1.00;;;;;;5077779;28;20758;-59
2023/08/24 00:55:10;;;;;;;6.60;5.40;;;16.40;1.00;;;;;;5077839;28;20536;-59
2023/08/24 00:57:38;;;;;;;8.70;6.17;;;16.40;1.00;;;;;;5076748;28;20559;-59
2023/08/24 01:00:10;;;;;;;6.40;5.80;;;16.30;91.20;;;;;;5077373;28;20901;-60
2023/08/24 01:02:39;;;;;;;6.40;5.60;;;16.40;97.90;;;;;;5077648;28;20468;-59
2023/08/24 01:05:06;;;;;;;14.40;6.83;;;16.30;36.40;;;;;;5077912;28;20484;-58
2023/08/24 01:07:36;;;;;;;7.20;6.10;;;16.30;99.90;;;;;;5077016;28;20462;-59
2023/08/24 01:10:04;;;;;;;7.30;6.20;;;16.30;85.30;;;;;;5077535;28;20484;-59
2023/08/24 01:12:41;;;;;;;7.20;6.10;;;16.30;99.90;;;;;;5077509;28;20967;-59
2023/08/24 01:15:25;;;;;;;9.73;6.60;;;16.30;1.00;;;;;;5077686;28;20457;-59
2023/08/24 01:17:57;;;;;;;8.17;6.40;;;16.20;99.90;;;;;;5076648;28;20485;-61
2023/08/24 01:20:25;;;;;;;7.83;6.43;;;16.10;89.00;;;;;;5077575;28;20518;-59
2023/08/24 01:22:58;;;;;;;8.80;6.43;;;16.10;27.70;;;;;;5076836;28;20594;-59
2023/08/24 01:25:35;;;;;;;7.50;6.17;;;16.10;99.90;;;;;;5076502;28;20556;-59
2023/08/24 01:28:06;;;;;;;10.20;6.27;;;16.10;44.10;;;;;;5077595;28;20471;-58
2023/08/24 01:30:35;;;;;;;7.90;6.40;;;16.20;9.90;;;;;;5077013;28;20461;-59
2023/08/24 01:33:04;;;;;;;7.07;6.43;;;16.10;1.00;;;;;;5077352;28;20760;-59
2023/08/24 01:35:32;;;;;;;9.30;6.30;;;16.00;48.10;;;;;;5076418;28;20779;-58
2023/08/24 01:38:03;;;;;;;9.47;6.60;;;16.00;98.90;;;;;;5076949;28;20496;-59
2023/08/24 01:40:38;;;;;;;6.63;5.93;;;16.00;83.10;;;;;;5077707;28;20461;-59
2023/08/24 01:43:08;;;;;;;6.87;6.27;;;16.00;50.70;;;;;;5076576;28;20848;-59
2023/08/24 01:45:35;;;;;;;11.10;6.53;;;16.00;1.00;;;;;;5076592;28;20925;-59
2023/08/24 01:48:04;;;;;;;7.80;6.17;;;16.00;1.00;;;;;;5057145;28;20469;-59
2023/08/24 01:50:32;;;;;;;6.90;6.10;;;16.00;69.50;;;;;;5061886;28;20457;-59
2023/08/24 01:52:59;;;;;;;6.70;6.00;;;15.90;7.30;;;;;;5076950;28;20515;-59
2023/08/24 01:55:27;;;;;;;7.50;5.73;;;15.90;49.20;;;;;;5077182;28;20556;-60
2023/08/24 01:57:56;;;;;;;7.70;5.80;;;15.80;94.90;;;;;;5080329;28;20929;-60
2023/08/24 02:00:25;;;;;;;11.53;6.73;;;15.80;99.90;;;;;;5079628;28;20461;-59
2023/08/24 02:02:52;;;;;;;7.90;6.10;;;15.80;99.90;;;;;;5080475;28;20462;-59
2023/08/24 02:05:19;;;;;;;8.33;7.27;;;15.80;99.90;;;;;;5080542;28;20463;-59
2023/08/24 02:07:46;;;;;;;7.20;6.50;;;15.70;99.90;;;;;;5076557;28;20814;-59
2023/08/24 02:10:13;;;;;;;11.17;7.07;;;15.60;99.90;;;;;;5081249;28;20457;-60
2023/08/24 02:12:41;;;;;;;7.27;6.30;;;15.70;99.90;;;;;;5076281;28;20502;-58
2023/08/24 02:15:09;;;;;;;10.10;7.37;;;15.70;99.90;;;;;;5080370;28;20496;-59
2023/08/24 02:17:37;;;;;;;7.87;6.23;;;15.70;99.90;;;;;;5080760;28;20485;-59
2023/08/24 02:20:07;;;;;;;7.53;6.23;;;15.80;99.90;;;;;;5080874;28;20467;-59
2023/08/24 02:22:35;;;;;;;7.53;6.10;;;15.70;99.90;;;;;;5080973;28;20465;-59
2023/08/24 02:25:02;;;;;;;7.00;6.30;;;15.80;99.90;;;;;;5079734;28;20527;-59
2023/08/24 02:27:30;;;;;;;8.10;7.03;;;15.70;99.90;;;;;;5079979;28;20468;-59
2023/08/24 02:29:57;;;;;;;9.73;6.50;;;15.80;99.90;;;;;;5080864;28;20555;-59
2023/08/24 02:32:24;;;;;;;7.27;6.30;;;15.80;99.90;;;;;;5080716;28;20559;-59
2023/08/24 02:34:53;;;;;;;11.57;6.67;;;15.80;99.90;;;;;;5079254;28;20495;-59
2023/08/24 02:37:20;;;;;;;11.77;6.63;;;15.80;99.90;;;;;;5080161;28;20582;-59
2023/08/24 02:39:47;;;;;;;10.57;6.30;;;15.80;99.90;;;;;;5079876;28;20492;-59
2023/08/24 02:42:14;;;;;;;7.27;6.17;;;15.80;99.90;;;;;;5079955;28;20851;-59
2023/08/24 02:44:41;;;;;;;9.43;6.20;;;15.80;99.90;;;;;;5078327;28;21113;-60
2023/08/24 02:47:09;;;;;;;6.90;6.30;;;15.70;99.90;;;;;;5078756;28;20738;-59
2023/08/24 02:49:36;;;;;;;8.03;6.67;;;15.70;99.90;;;;;;5079823;28;20507;-59
2023/08/24 02:52:05;;;;;;;8.20;7.33;;;15.60;99.90;;;;;;5080536;28;20559;-59
2023/08/24 02:54:32;;;;;;;13.77;6.93;;;15.60;99.90;;;;;;5080303;28;20873;-59
2023/08/24 02:56:59;;;;;;;9.00;7.30;;;15.60;99.90;;;;;;5078623;28;20485;-60
2023/08/24 02:59:26;;;;;;;9.30;6.80;;;15.70;99.90;;;;;;5079399;28;20484;-59
2023/08/24 03:01:54;;;;;;;11.03;6.90;;;15.70;99.90;;;;;;5079427;28;20465;-59
2023/08/24 03:04:21;;;;;;;8.00;6.60;;;15.70;99.90;;;;;;5079976;28;20457;-59
2023/08/24 03:06:48;;;;;;;8.47;6.87;;;15.70;99.90;;;;;;5079295;28;20971;-59
2023/08/24 03:09:17;;;;;;;7.50;6.63;;;15.70;19.60;;;;;;5079431;28;20552;-59
2023/08/24 03:11:44;;;;;;;7.80;7.10;;;15.70;99.90;;;;;;5079499;28;20463;-59
2023/08/24 03:14:11;;;;;;;9.70;7.20;;;15.70;99.90;;;;;;5079439;28;20457;-59
2023/08/24 03:16:39;;;;;;;9.33;6.17;;;15.70;99.90;;;;;;5079827;28;20932;-61
2023/08/24 03:19:07;;;;;;;10.23;6.90;;;15.70;99.90;;;;;;5079971;28;20484;-59
2023/08/24 03:21:34;;;;;;;11.77;6.80;;;15.80;99.90;;;;;;5079441;28;20461;-60
2023/08/24 03:24:10;;;;;;;11.27;6.53;;;15.80;99.90;;;;;;5079953;28;20555;-59
2023/08/24 03:26:39;;;;;;;9.70;6.60;;;15.80;99.90;;;;;;5078974;28;20802;-59
2023/08/24 03:29:06;;;;;;;10.33;6.73;;;15.90;99.90;;;;;;5079575;28;20461;-59
2023/08/24 03:31:33;;;;;;;10.77;6.30;;;15.90;99.90;;;;;;5079613;28;20878;-59
2023/08/24 03:34:01;;;;;;;7.37;6.23;;;15.90;99.90;;;;;;5078999;28;20516;-59
2023/08/24 03:36:30;;;;;;;9.27;6.50;;;16.00;76.60;;;;;;5078988;28;20469;-59
2023/08/24 03:38:57;;;;;;;9.60;6.33;;;16.00;1.00;;;;;;5078945;28;20458;-58
2023/08/24 03:41:25;;;;;;;8.23;6.40;;;16.10;1.00;;;;;;5079262;28;20472;-59
2023/08/24 03:43:53;;;;;;;11.43;6.57;;;16.10;1.00;;;;;;5079194;28;20902;-59
2023/08/24 03:46:21;;;;;;;9.90;7.20;;;16.10;1.00;;;;;;5079466;28;20547;-59
2023/08/24 03:48:48;;;;;;;9.93;6.43;;;16.00;1.00;;;;;;5077795;28;20843;-59
2023/08/24 03:51:15;;;;;;;8.03;6.77;;;15.90;7.40;;;;;;5077502;28;20565;-59
2023/08/24 03:53:42;;;;;;;10.70;6.60;;;16.00;1.00;;;;;;5079032;28;20457;-58
2023/08/24 03:56:09;;;;;;;9.00;7.07;;;16.00;1.00;;;;;;5079099;28;20468;-59
2023/08/24 03:58:36;;;;;;;8.03;5.40;;;16.10;99.90;;;;;;5079070;28;20577;-59
2023/08/24 04:01:06;;;;;;;13.70;7.03;;;16.10;1.00;;;;;;5077895;28;20508;-59
2023/08/24 04:03:34;;;;;;;7.67;6.67;;;16.10;4.90;;;;;;5077784;28;20894;-59
2023/08/24 04:06:01;;;;;;;7.47;6.63;;;16.10;5.80;;;;;;5077092;28;20556;-59
2023/08/24 04:08:28;;;;;;;9.13;7.20;;;16.10;50.10;;;;;;5077045;28;20500;-60
2023/08/24 04:10:55;;;;;;;7.13;6.37;;;16.20;1.00;;;;;;5075891;28;20468;-59
2023/08/24 04:13:22;;;;;;;11.70;7.07;;;16.20;1.00;;;;;;5076378;28;20461;-59
2023/08/24 04:15:50;;;;;;;9.57;6.40;;;16.30;1.00;;;;;;5077029;28;20461;-60
2023/08/24 04:18:18;;;;;;;13.50;6.60;;;16.30;99.90;;;;;;5077237;28;20584;-59
2023/08/24 04:20:45;;;;;;;8.30;6.57;;;16.30;1.00;;;;;;5077820;28;20483;-60
2023/08/24 04:23:14;;;;;;;7.30;6.10;;;16.30;99.90;;;;;;5078453;28;20461;-59
2023/08/24 04:25:43;;;;;;;7.40;6.27;;;16.30;1.00;;;;;;5078030;28;20552;-59
2023/08/24 04:28:10;;;;;;;8.10;6.30;;;16.40;99.90;;;;;;5078150;28;20785;-59
2023/08/24 04:30:38;;;;;;;9.30;5.77;;;16.40;1.00;;;;;;5078262;28;20486;-59
2023/08/24 04:33:06;;;;;;;12.87;6.60;;;16.50;1.00;;;;;;5077619;28;20469;-59
2023/08/24 04:35:37;;;;;;;10.37;7.00;;;16.50;99.90;;;;;;5077493;28;20565;-59
2023/08/24 04:38:04;;;;;;;8.70;7.80;;;16.50;1.00;;;;;;5077131;28;20485;-59
2023/08/24 04:40:44;;;;;;;10.23;6.80;;;16.50;38.10;;;;;;5078157;28;20457;-59
2023/08/24 04:43:11;;;;;;;8.37;6.63;;;16.40;99.90;;;;;;5077977;28;20461;-59
2023/08/24 04:45:39;;;;;;;9.50;7.40;;;16.50;99.90;;;;;;5078140;28;20552;-59
2023/08/24 04:48:06;;;;;;;8.70;7.27;;;16.50;99.90;;;;;;5076361;28;20496;-61
2023/08/24 04:50:34;;;;;;;8.30;7.07;;;16.60;7.60;;;;;;5078310;28;20467;-63
2023/08/24 04:53:02;;;;;;;10.00;7.60;;;16.60;1.00;;;;;;5077536;28;20500;-62
2023/08/24 04:55:29;;;;;;;7.60;6.10;;;16.60;26.60;;;;;;5077513;28;20453;-58
2023/08/24 04:57:56;;;;;;;12.63;7.50;;;16.70;99.90;;;;;;5076498;28;20484;-58
2023/08/24 05:00:24;;;;;;;9.80;7.80;;;16.70;1.00;;;;;;5077539;28;20462;-57
2023/08/24 05:02:52;;;;;;;11.90;7.67;;;16.70;54.70;;;;;;5076995;28;20487;-57
2023/08/24 05:05:20;;;;;;;7.50;6.80;;;16.70;99.90;;;;;;5077685;28;20886;-57
2023/08/24 05:07:48;;;;;;;9.80;7.57;;;16.70;99.90;;;;;;5077321;28;20453;-58
2023/08/24 05:10:17;;;;;;;8.40;7.43;;;16.70;99.90;;;;;;5077129;28;20548;-59
2023/08/24 05:12:45;;;;;;;10.53;7.20;;;16.70;99.90;;;;;;5077160;28;20489;-60
2023/08/24 05:15:13;;;;;;;8.00;7.10;;;16.50;1.00;;;;;;5077746;28;20731;-60
2023/08/24 05:17:40;;;;;;;9.93;7.23;;;16.60;1.00;;;;;;5077667;28;20781;-61
2023/08/24 05:20:10;;;;;;;9.40;7.30;;;16.60;1.00;;;;;;5077440;28;20457;-63
2023/08/24 05:22:37;;;;;;;8.47;7.67;;;16.60;1.00;;;;;;5076919;28;20461;-63
2023/08/24 05:25:05;;;;;;;11.90;7.60;;;16.70;99.90;;;;;;5077004;28;20635;-64
2023/08/24 05:27:34;;;;;;;12.17;8.30;;;16.80;36.60;;;;;;5076563;28;20548;-65
2023/08/24 05:30:01;;;;;;;13.77;9.50;;;16.80;99.90;;;;;;5076996;28;20453;-67
2023/08/24 05:32:28;;;;;;;11.47;9.13;;;16.70;99.90;;;;;;5075914;28;20747;-66
2023/08/24 05:34:56;;;;;;;11.07;9.97;;;16.70;1.00;;;;;;5074426;28;20481;-66
2023/08/24 05:37:23;;;;;;;11.60;9.87;;;16.80;1.00;;;;;;5075365;28;20587;-66
2023/08/24 05:39:50;;;;;;;11.23;10.10;;;16.90;1.00;;;;;;5076528;28;20839;-67
2023/08/24 05:42:17;;;;;;;12.60;10.20;;;17.00;1.00;;;;;;5076432;28;20488;-67
2023/08/24 05:44:46;;;;;;;11.87;9.53;;;17.00;1.00;;;;;;5075378;28;20470;-63
2023/08/24 05:47:13;;;;;;;12.40;8.73;;;17.10;1.00;;;;;;5075350;28;20556;-63
2023/08/24 05:49:40;;;;;;;12.37;9.00;;;17.20;99.90;;;;;;5076241;28;20503;-63
2023/08/24 05:52:08;;;;;;;10.20;8.50;;;17.30;99.90;;;;;;5077133;28;20555;-63
2023/08/24 05:54:37;;;;;;;12.53;8.50;;;17.40;99.90;;;;;;5076484;28;20492;-62
2023/08/24 05:57:04;;;;;;;10.10;8.80;;;17.50;99.90;;;;;;5076613;28;20514;-62
2023/08/24 05:59:32;;;;;;;14.57;8.80;;;17.50;99.90;;;;;;5076784;28;20571;-62
2023/08/24 06:02:01;;;;;;;10.13;8.67;;;17.50;1.00;;;;;;5076718;28;20749;-63
2023/08/24 06:04:28;;;;;;;9.80;8.20;;;17.60;93.80;;;;;;5075421;28;20453;-63
2023/08/24 06:06:56;;;;;;;12.53;8.80;;;17.70;99.90;;;;;;5074056;28;20563;-63
2023/08/24 06:09:23;;;;;;;13.10;9.13;;;17.70;48.70;;;;;;5073645;28;20754;-63
2023/08/24 06:11:50;;;;;;;13.17;9.10;;;17.70;99.90;;;;;;5073607;28;20463;-63
2023/08/24 06:14:17;;;;;;;11.57;10.07;;;17.70;99.90;;;;;;5073996;28;20881;-62
2023/08/24 06:16:45;;;;;;;14.37;11.83;;;17.90;99.90;;;;;;5072514;28;20527;-63
2023/08/24 06:19:14;;;;;;;12.90;11.70;;;18.00;99.90;;;;;;5075456;28;20493;-63
2023/08/24 06:21:41;;;;;;;13.87;12.67;;;18.00;1.00;;;;;;5075195;28;20472;-63
2023/08/24 06:24:08;;;;;;;12.47;11.17;;;18.10;1.00;;;;;;5075355;28;20556;-64
2023/08/24 06:26:36;;;;;;;11.70;10.50;;;18.20;1.00;;;;;;5073826;28;20465;-62
2023/08/24 06:29:03;;;;;;;11.33;10.13;;;18.30;1.00;;;;;;5074740;28;20563;-63
2023/08/24 06:31:31;;;;;;;12.13;10.93;;;18.50;1.00;;;;;;5075462;28;20514;-63
2023/08/24 06:33:58;;;;;;;12.90;11.60;;;18.70;1.00;;;;;;5075377;28;20489;-62
2023/08/24 06:36:28;;;;;;;12.40;11.20;;;18.70;99.90;;;;;;5075283;28;20467;-62
2023/08/24 06:38:55;;;;;;;14.90;13.43;;;18.90;1.00;;;;;;5075233;28;20493;-62
2023/08/24 06:41:22;;;;;;;15.00;13.60;;;19.20;1.00;;;;;;5075241;28;20561;-63
2023/08/24 06:43:50;;;;;;;12.23;11.10;;;19.40;1.00;;;;;;5080084;28;20459;-62
2023/08/24 06:46:19;;;;;;;10.27;8.57;;;19.70;24.80;;;;;;5080575;28;20467;-62
2023/08/24 06:48:47;;;;;;;9.07;8.17;;;19.70;99.90;;;;;;5080289;28;20739;-61
2023/08/24 06:51:16;;;;;;;9.50;7.43;;;20.00;50.30;;;;;;5079878;28;20736;-62
2023/08/24 06:53:46;;;;;;;9.07;7.10;;;20.20;99.90;;;;;;5078951;28;20511;-63
2023/08/24 06:56:15;;;;;;;7.67;6.43;;;20.40;99.90;;;;;;5079362;28;20501;-62
2023/08/24 06:58:42;;;;;;;8.17;6.77;;;20.50;99.90;;;;;;5079470;28;20484;-63
2023/08/24 07:01:10;;;;;;;9.70;7.33;;;20.70;99.90;;;;;;5079551;28;20496;-61
2023/08/24 07:03:38;;;;;;;11.53;6.70;;;20.90;1.00;;;;;;5079611;28;20744;-61
2023/08/24 07:06:07;;;;;;;9.73;6.27;;;21.10;99.90;;;;;;5079760;28;20834;-62
2023/08/24 07:08:34;;;;;;;9.80;6.03;;;21.30;1.00;;;;;;5079194;28;20457;-60
2023/08/24 07:11:03;;;;;;;8.40;5.93;;;21.50;99.90;;;;;;5078357;28;20488;-60
2023/08/24 07:13:31;;;;;;;6.73;6.13;;;21.60;99.90;;;;;;5077730;28;20473;-60
2023/08/24 07:15:58;;;;;;;12.00;5.90;;;21.70;99.90;;;;;;5079380;28;20813;-61
2023/08/24 07:18:26;;;;;;;7.43;6.07;;;22.00;1.00;;;;;;5078179;28;20489;-61
2023/08/24 07:20:55;;;;;;;7.37;4.90;;;22.10;1.00;;;;;;5075933;28;20465;-61
2023/08/24 07:23:22;;;;;;;5.80;5.10;;;22.20;99.90;;;;;;5076274;28;20639;-60
2023/08/24 07:25:49;;;;;;;6.23;5.53;;;22.20;1.00;;;;;;5076395;28;20457;-61
2023/08/24 07:28:18;;;;;;;8.47;5.23;;;22.40;1.00;;;;;;5076535;28;20523;-61
2023/08/24 07:30:45;;;;;;;6.87;4.70;;;22.80;1.00;;;;;;5076142;28;20512;-59
2023/08/24 07:33:13;;;;;;;5.80;5.20;;;23.10;1.00;;;;;;5077326;28;20469;-61
2023/08/24 07:35:40;;;;;;;5.67;5.17;;;23.30;99.90;;;;;;5078547;28;20497;-59
2023/08/24 07:38:07;;;;;;;6.00;4.93;;;23.50;1.00;;;;;;5078738;28;20492;-61
2023/08/24 07:40:35;;;;;;;4.97;4.07;;;23.70;99.90;;;;;;5079330;28;20848;-60
2023/08/24 07:43:02;;;;;;;5.23;4.43;;;23.90;99.90;;;;;;5078792;28;20462;-62
2023/08/24 07:45:31;;;;;;;6.53;4.40;;;24.10;99.90;;;;;;5078500;28;20817;-61
2023/08/24 07:47:58;;;;;;;8.43;4.20;;;24.20;99.90;;;;;;5063080;28;21001;-60
2023/08/24 07:50:25;;;;;;;6.27;4.63;;;24.40;99.90;;;;;;5079125;28;20981;-60
2023/08/24 07:52:53;;;;;;;5.33;4.10;;;24.60;99.90;;;;;;5077920;28;20458;-60
2023/08/24 07:55:20;;;;;;;5.37;4.30;;;24.70;99.90;;;;;;5078384;28;20457;-60
2023/08/24 07:57:48;;;;;;;4.70;4.23;;;25.00;99.90;;;;;;5077926;28;20465;-61
2023/08/24 08:00:16;;;;;;;5.20;4.70;;;25.20;99.90;;;;;;5078802;28;20519;-60
2023/08/24 08:02:45;;;;;;;5.30;4.27;;;25.50;76.00;;;;;;5079066;28;20758;-60
2023/08/24 08:05:12;;;;;;;5.50;4.00;;;25.70;74.40;;;;;;5078485;28;20898;-61
2023/08/24 08:07:40;;;;;;;4.70;4.30;;;25.80;1.00;;;;;;5077869;28;20472;-61
2023/08/24 08:10:07;;;;;;;4.60;3.53;;;25.80;1.00;;;;;;5078702;28;20457;-61
2023/08/24 08:12:35;;;;;;;4.53;3.80;;;25.70;1.00;;;;;;5078493;28;20472;-60
2023/08/24 08:15:03;;;;;;;4.77;4.37;;;25.90;1.00;;;;;;5078533;28;20497;-60
2023/08/24 08:17:30;;;;;;;4.87;4.40;;;26.20;1.00;;;;;;5078228;28;20878;-60
2023/08/24 08:19:59;;;;;;;3.97;3.57;;;26.40;1.00;;;;;;5077403;28;20495;-60
2023/08/24 08:22:26;;;;;;;5.23;4.00;;;26.70;1.00;;;;;;5078857;28;20453;-59
2023/08/24 08:24:56;;;;;;;4.50;4.10;;;26.80;1.00;;;;;;5077949;28;20753;-59
2023/08/24 08:27:23;;;;;;;4.97;3.43;;;27.00;1.00;;;;;;5078327;28;20461;-58
2023/08/24 08:29:51;;;;;;;5.80;4.03;;;27.30;1.00;;;;;;5077320;28;20921;-60
2023/08/24 08:32:18;;;;;;;4.93;4.00;;;27.60;1.00;;;;;;5078508;28;20454;-60
2023/08/24 08:34:46;;;;;;;4.53;3.83;;;27.80;1.00;;;;;;5076924;28;20802;-60
2023/08/24 08:37:15;;;;;;;5.10;3.80;;;28.00;1.00;;;;;;5077998;28;20723;-60
2023/08/24 08:39:42;;;;;;;4.40;4.07;;;28.30;1.00;;;;;;5078210;28;20489;-59
2023/08/24 08:42:13;;;;;;;7.43;4.63;;;28.60;1.00;;;;;;5078472;28;20457;-60
2023/08/24 08:44:42;;;;;;;4.07;3.70;;;28.90;1.00;;;;;;5076765;28;20484;-60
2023/08/24 08:47:12;;;;;;;4.47;4.07;;;28.90;99.90;;;;;;5077199;28;20473;-60
2023/08/24 08:49:40;;;;;;;5.40;3.67;;;28.90;99.90;;;;;;5077668;28;20548;-59
2023/08/24 08:52:08;;;;;;;4.13;3.77;;;29.00;99.90;;;;;;5078052;28;20515;-59
2023/08/24 08:54:37;;;;;;;4.30;3.90;;;29.00;99.90;;;;;;5077228;28;20496;-59
2023/08/24 08:57:04;;;;;;;4.53;3.67;;;29.10;99.90;;;;;;5077880;28;20883;-59
2023/08/24 08:59:32;;;;;;;5.10;4.60;;;28.90;99.90;;;;;;5077114;28;20968;-59
2023/08/24 09:02:01;;;;;;;7.43;4.27;;;29.00;99.90;;;;;;5077620;28;20457;-59
2023/08/24 09:04:30;;;;;;;5.13;3.83;;;28.90;99.90;;;;;;5077478;28;20454;-59
2023/08/24 09:06:58;;;;;;;3.93;3.60;;;28.90;99.90;;;;;;5077729;28;20488;-60
2023/08/24 09:09:26;;;;;;;5.03;4.40;;;28.90;99.90;;;;;;5076689;28;20827;-59
2023/08/24 09:11:55;;;;;;;4.30;4.00;;;28.90;99.90;;;;;;5077091;28;20825;-60
2023/08/24 09:14:22;;;;;;;4.87;4.10;;;28.90;99.90;;;;;;5077795;28;20461;-59
2023/08/24 09:16:51;;;;;;;5.83;4.07;;;28.90;99.90;;;;;;5077091;28;20506;-59
2023/08/24 09:19:18;;;;;;;4.37;3.97;;;28.90;99.90;;;;;;5077248;28;20945;-60
2023/08/24 09:21:46;;;;;;;4.93;3.90;;;29.00;99.90;;;;;;5076929;28;20468;-60
2023/08/24 09:24:13;;;;;;;4.40;4.00;;;29.20;99.90;;;;;;5077225;28;20816;-59
2023/08/24 09:26:42;;;;;;;4.47;4.07;;;29.10;99.90;;;;;;5076475;28;20471;-59
2023/08/24 09:29:15;;;;;;;5.07;4.27;;;29.10;77.20;;;;;;5076093;28;20914;-59
2023/08/24 09:31:44;;;;;;;4.53;4.13;;;29.10;59.10;;;;;;5074823;28;20547;-59
2023/08/24 09:34:12;;;;;;;5.37;3.67;;;29.20;61.20;;;;;;5075326;28;20838;-59
2023/08/24 09:36:40;;;;;;;7.40;4.33;;;29.20;46.90;;;;;;5075530;28;20468;-58
2023/08/24 09:39:08;;;;;;;5.53;4.60;;;29.40;39.20;;;;;;5075678;28;20787;-59
2023/08/24 09:41:41;;;;;;;5.67;4.63;;;29.40;44.10;;;;;;5074910;28;20465;-59
2023/08/24 09:44:09;;;;;;;5.90;4.87;;;29.40;14.40;;;;;;5076286;28;20465;-59
2023/08/24 09:46:38;;;;;;;4.63;3.90;;;29.40;28.90;;;;;;5077549;28;20457;-58
2023/08/24 09:49:07;;;;;;;4.63;3.90;;;29.40;9.00;;;;;;5076941;28;20761;-58
2023/08/24 09:51:35;;;;;;;5.10;4.50;;;29.60;11.20;;;;;;5076523;28;20551;-58
2023/08/24 09:54:08;;;;;;;4.97;4.57;;;29.90;23.70;;;;;;5076814;28;20555;-59
2023/08/24 09:56:39;;;;;;;4.60;4.20;;;29.70;1.00;;;;;;5076367;28;20461;-58
2023/08/24 09:59:13;;;;;;;7.20;4.20;;;30.00;12.00;;;;;;5076514;28;20583;-58
2023/08/24 10:01:46;;;;;;;4.70;4.30;;;30.10;5.70;;;;;;5076983;28;20915;-58
2023/08/24 10:04:15;;;;;;;4.60;4.20;;;30.20;8.10;;;;;;5077140;28;20461;-58
2023/08/24 10:06:48;;;;;;;4.60;4.20;;;30.50;3.90;;;;;;5077281;28;20456;-58
2023/08/24 10:09:22;;;;;;;4.30;3.90;;;30.60;1.00;;;;;;5076232;28;20457;-59
2023/08/24 10:11:53;;;;;;;4.80;4.03;;;30.70;4.60;;;;;;5075368;28;20492;-59
2023/08/24 10:14:28;;;;;;;4.10;3.80;;;30.70;1.00;;;;;;5075945;28;20917;-59
2023/08/24 10:16:58;;;;;;;4.97;4.60;;;31.00;1.00;;;;;;5077669;28;20460;-60
2023/08/24 10:19:26;;;;;;;5.03;4.20;;;31.00;1.00;;;;;;5079617;28;20542;-59
2023/08/24 10:21:57;;;;;;;4.50;4.10;;;30.90;1.00;;;;;;5080891;28;20464;-59
2023/08/24 10:24:24;;;;;;;4.40;3.83;;;30.80;1.00;;;;;;5077866;28;20469;-61
2023/08/24 10:26:51;;;;;;;3.93;3.60;;;30.60;1.00;;;;;;5079989;28;20886;-60
2023/08/24 10:29:21;;;;;;;4.40;4.00;;;30.60;1.00;;;;;;5079908;28;20874;-58
2023/08/24 10:31:50;;;;;;;5.00;4.27;;;30.60;1.00;;;;;;5077375;28;20472;-59
2023/08/24 10:34:22;;;;;;;4.40;4.00;;;30.60;1.00;;;;;;5079767;28;20488;-59
2023/08/24 10:36:49;;;;;;;4.57;4.10;;;30.50;1.00;;;;;;5078517;28;20473;-59
2023/08/24 10:39:17;;;;;;;4.30;3.90;;;30.30;1.00;;;;;;5080400;28;20524;-60
2023/08/24 10:41:51;;;;;;;11.60;3.63;;;30.30;1.00;;;;;;5080103;28;20846;-59
2023/08/24 10:44:23;;;;;;;4.40;4.00;;;30.20;1.00;;;;;;5074654;28;20468;-59
2023/08/24 10:47:13;;;;;;;4.40;4.00;;;30.50;1.00;;;;;;5078002;28;20778;-59
2023/08/24 10:49:42;;;;;;;5.00;4.50;;;30.50;1.00;;;;;;5080164;28;20481;-59
2023/08/24 10:52:19;;;;;;;5.30;4.43;;;30.50;1.00;;;;;;5079363;28;20539;-58
2023/08/24 10:54:48;;;;;;;4.53;3.93;;;30.60;1.00;;;;;;5077904;28;20472;-59
2023/08/24 10:57:23;;;;;;;5.50;4.77;;;30.70;1.00;;;;;;5075240;28;20469;-59
2023/08/24 11:00:00;;;;;;;4.40;4.00;;;30.70;1.00;;;;;;5080024;28;20490;-59
2023/08/24 11:02:28;;;;;;;5.67;3.93;;;30.60;1.00;;;;;;5079399;28;20457;-59
2023/08/24 11:05:19;;;;;;;5.53;4.30;;;30.70;1.00;;;;;;5078992;28;20511;-59
2023/08/24 11:07:51;;;;;;;5.27;4.43;;;30.70;1.00;;;;;;5077839;28;20479;-59
2023/08/24 11:10:18;;;;;;;4.40;4.10;;;30.60;1.00;;;;;;5076608;28;20459;-59
2023/08/24 11:13:09;;;;;;;4.93;3.97;;;30.50;1.00;;;;;;5079037;28;20452;-59
2023/08/24 11:15:40;;;;;;;4.30;4.00;;;30.60;1.00;;;;;;5078401;28;20457;-59
2023/08/24 11:18:14;;;;;;;4.97;4.47;;;30.40;1.00;;;;;;5075981;28;20920;-59
2023/08/24 11:20:46;;;;;;;7.30;4.67;;;30.50;1.00;;;;;;5078806;28;20570;-59
2023/08/24 11:23:14;;;;;;;6.30;4.20;;;30.60;1.00;;;;;;5079803;28;20465;-59
2023/08/24 11:25:41;;;;;;;4.83;4.33;;;30.90;1.00;;;;;;5079912;28;20814;-59
2023/08/24 11:28:09;;;;;;;5.50;4.07;;;30.90;1.00;;;;;;5078345;28;20467;-60
2023/08/24 11:30:36;;;;;;;4.40;4.00;;;31.00;1.00;;;;;;5078180;28;20489;-59
2023/08/24 11:33:04;;;;;;;5.50;4.00;;;30.80;1.00;;;;;;5078672;28;20756;-58
2023/08/24 11:35:37;;;;;;;4.77;4.33;;;30.70;1.00;;;;;;5077301;28;20554;-59
2023/08/24 11:38:06;;;;;;;4.90;4.30;;;30.50;1.00;;;;;;5077607;28;20478;-58
2023/08/24 11:40:33;;;;;;;6.17;4.00;;;30.30;1.00;;;;;;5093899;28;20488;-58
2023/08/24 11:43:00;;;;;;;4.67;4.13;;;30.30;1.00;;;;;;5094766;28;20470;-59
2023/08/24 11:45:32;;;;;;;5.43;4.47;;;30.50;1.00;;;;;;5078026;28;20556;-59
2023/08/24 11:48:00;;;;;;;4.30;3.90;;;30.30;1.00;;;;;;5078840;28;20461;-59
2023/08/24 11:50:28;;;;;;;5.00;4.60;;;30.20;1.00;;;;;;5078195;28;20492;-58
2023/08/24 11:52:56;;;;;;;4.70;4.30;;;30.00;1.00;;;;;;5077202;28;20526;-59
2023/08/24 11:55:25;;;;;;;5.43;4.20;;;29.70;1.00;;;;;;5076431;28;20469;-58
2023/08/24 11:57:52;;;;;;;4.57;4.17;;;29.60;1.00;;;;;;5076344;28;20488;-58
2023/08/24 12:00:22;;;;;;;4.80;4.40;;;29.40;1.00;;;;;;5078564;28;20887;-59
2023/08/24 12:02:50;;;;;;;6.80;4.80;;;29.00;1.00;;;;;;5077264;28;20467;-58
2023/08/24 12:05:25;;;;;;;5.43;4.23;;;29.00;1.00;;;;;;5075848;28;20461;-59
2023/08/24 12:07:54;;;;;;;6.77;4.53;;;29.00;1.00;;;;;;5077577;28;20489;-59
2023/08/24 12:10:22;;;;;;;4.77;4.10;;;29.20;1.00;;;;;;5076280;28;20496;-58
2023/08/24 12:12:50;;;;;;;6.73;4.80;;;29.40;1.00;;;;;;5075597;28;20742;-58
2023/08/24 12:15:20;;;;;;;6.10;4.40;;;29.60;1.00;;;;;;5073013;28;20565;-59
2023/08/24 12:17:48;;;;;;;4.50;4.10;;;29.70;1.00;;;;;;5069546;28;20469;-59
2023/08/24 12:20:23;;;;;;;4.90;4.50;;;30.00;1.00;;;;;;5073314;28;20489;-58
2023/08/24 12:22:54;;;;;;;7.13;4.10;;;30.20;1.00;;;;;;5060993;28;20540;-59
2023/08/24 12:25:25;;;;;;;6.63;4.20;;;30.60;1.00;;;;;;5075609;28;20458;-59
2023/08/24 12:28:08;;;;;;;4.77;4.27;;;30.80;1.00;;;;;;5075519;28;20484;-58
2023/08/24 12:30:46;;;;;;;6.93;4.00;;;31.00;1.00;;;;;;5068330;28;20450;-59
2023/08/24 12:33:25;;;;;;;5.20;4.13;;;30.90;1.00;;;;;;5071247;28;20501;-60
2023/08/24 12:35:55;;;;;;;9.40;4.90;;;30.70;1.00;;;;;;5075668;28;20472;-59
2023/08/24 12:38:24;;;;;;;5.17;4.20;;;30.20;1.00;;;;;;5077866;28;20463;-58
2023/08/24 12:40:53;;;;;;;7.23;4.57;;;30.00;1.00;;;;;;5076151;28;20481;-59
2023/08/24 12:43:24;;;;;;;5.27;4.87;;;29.80;1.00;;;;;;5076809;28;20476;-59
2023/08/24 12:45:52;;;;;;;5.90;4.43;;;29.60;1.00;;;;;;5074837;28;20491;-58
2023/08/24 12:48:20;;;;;;;6.10;4.40;;;29.40;1.00;;;;;;5076693;28;20500;-59
2023/08/24 12:50:48;;;;;;;4.43;4.03;;;29.10;1.00;;;;;;5074879;28;20473;-59
2023/08/24 12:53:17;;;;;;;5.30;4.40;;;28.80;1.00;;;;;;5076111;28;20468;-59
2023/08/24 12:55:46;;;;;;;5.70;4.80;;;28.40;1.00;;;;;;5077327;28;20469;-58
2023/08/24 12:58:14;;;;;;;6.20;5.30;;;28.00;1.00;;;;;;5076760;28;20516;-58